SI-0019 weather

Vzletišče Črnotiče
Črnotiče, Koper, Slovenia

Public forecast

Using degrees Celsius for public forecast. Weather courtesy of forecast.io.

METAR (pilot weather report)

Closest report is Portoroz Airport, 13.5 nm (25.0 km) WSW. Retrieved 2019/07/17 23:30 UTC (13 minutes ago):

LJPZ 172330Z AUTO 12006KT 9999 NSC 18/12 Q1011

TAF (pilot weather forecast)

Closest forecast is Trieste–Friuli Venezia Giulia Airport, 24.5 nm (45.5 km) NW. Retrieved 2019/07/17 18:21 UTC (5 hours ago):

TAF LIPQ 171700Z 1718/1818 VRB06KT 9999 SCT040 TEMPO 1721/1724 SHRA BECMG 1810/1812 20010KT BECMG 1816/1818 VRB05KT